Orbital elements of COSMOS 970 DEB
| Launched | 20 December 1977 |
| Flight ended | – |
| Launch site | Tyuratam Missile and Space Center, Kazakhstan (Also known as Baikonur Cosmodrome) |
| Owner | Commonwealth of Independent States (former USSR) |
| NORAD ID | 10577 |
| Date fetched |
Epoch osculation |
Inc. [°] |
Ecc. | RA asc node [hr] |
Arg Peri. [°] |
Mean anom [°] |
Mean motion [rev/day] |
Abs. mag |
| Date fetched |
Epoch osculation |
Inc. [°] |
Ecc. | RA asc node [hr] |
Arg Peri. [°] |
Mean anom [°] |
Mean motion [rev/day] |
Abs. mag |
| 2026 May 03 17:57 | 2026 Apr 30 10:42:53 | 65.7930 | 0.01387 | 7.3159 | 330.9136 | 194.5530 | 13.69167 | – |
| 2026 May 02 17:57 | 2026 Apr 30 10:42:53 | 65.7930 | 0.01387 | 7.3159 | 330.9136 | 194.5530 | 13.69167 | – |
| 2026 May 01 17:56 | 2026 Apr 30 10:42:53 | 65.7930 | 0.01387 | 7.3159 | 330.9136 | 194.5530 | 13.69167 | – |
| 2026 Apr 30 17:56 | 2026 Apr 30 10:42:53 | 65.7930 | 0.01387 | 7.3159 | 330.9136 | 194.5530 | 13.69167 | – |
| 2026 Apr 29 17:57 | 2026 Apr 24 12:18:14 | 65.7926 | 0.01383 | 8.2854 | 333.6523 | 194.5530 | 13.69167 | – |
| 2026 Apr 28 17:56 | 2026 Apr 24 12:18:14 | 65.7926 | 0.01383 | 8.2854 | 333.6523 | 194.5530 | 13.69167 | – |
| 2026 Apr 27 17:58 | 2026 Apr 24 12:18:14 | 65.7926 | 0.01383 | 8.2854 | 333.6523 | 194.5530 | 13.69167 | – |
| 2026 Apr 26 17:58 | 2026 Apr 24 12:18:14 | 65.7926 | 0.01383 | 8.2854 | 333.6523 | 194.5530 | 13.69167 | – |
| 2026 Apr 25 17:58 | 2026 Apr 24 12:18:14 | 65.7926 | 0.01383 | 8.2854 | 333.6523 | 194.5530 | 13.69167 | – |
| 2026 Apr 24 17:59 | 2026 Apr 24 12:18:14 | 65.7926 | 0.01383 | 8.2854 | 333.6523 | 194.5530 | 13.69167 | – |
| 2026 Apr 23 17:57 | 2026 Apr 19 04:13:41 | 65.7931 | 0.01378 | 9.1573 | 336.1366 | 194.5530 | 13.69167 | – |
| 2026 Apr 22 17:57 | 2026 Apr 19 04:13:41 | 65.7931 | 0.01378 | 9.1573 | 336.1366 | 194.5530 | 13.69167 | – |
| 2026 Apr 21 17:57 | 2026 Apr 19 04:13:41 | 65.7931 | 0.01378 | 9.1573 | 336.1366 | 194.5530 | 13.69167 | – |
| 2026 Apr 20 17:57 | 2026 Apr 19 04:13:41 | 65.7931 | 0.01378 | 9.1573 | 336.1366 | 194.5530 | 13.69167 | – |
| 2026 Apr 19 17:58 | 2026 Apr 19 04:13:41 | 65.7931 | 0.01378 | 9.1573 | 336.1366 | 194.5530 | 13.69167 | – |
| 2026 Apr 18 17:56 | 2026 Apr 13 06:17:50 | 65.7936 | 0.01373 | 10.1235 | 338.9157 | 194.5530 | 13.69167 | – |
| 2026 Apr 16 17:57 | 2026 Apr 13 06:17:50 | 65.7936 | 0.01373 | 10.1235 | 338.9157 | 194.5530 | 13.69167 | – |
| 2026 Apr 14 17:57 | 2026 Apr 13 06:17:50 | 65.7936 | 0.01373 | 10.1235 | 338.9157 | 194.5530 | 13.69167 | – |
| 2026 Apr 13 17:57 | 2026 Apr 13 06:17:50 | 65.7936 | 0.01373 | 10.1235 | 338.9157 | 194.5530 | 13.69167 | – |
| 2026 Apr 12 17:57 | 2026 Apr 08 14:32:36 | 65.7945 | 0.01369 | 10.8842 | 341.1235 | 194.5530 | 13.69167 | – |
| 2026 Apr 11 17:57 | 2026 Apr 08 14:32:36 | 65.7945 | 0.01369 | 10.8842 | 341.1235 | 194.5530 | 13.69167 | – |
| 2026 Apr 10 17:58 | 2026 Apr 08 14:32:36 | 65.7945 | 0.01369 | 10.8842 | 341.1235 | 194.5530 | 13.69167 | – |
| 2026 Apr 09 18:01 | 2026 Apr 08 14:32:36 | 65.7945 | 0.01369 | 10.8842 | 341.1235 | 194.5530 | 13.69167 | – |
| 2026 Apr 08 17:57 | 2026 Apr 08 14:32:36 | 65.7945 | 0.01369 | 10.8842 | 341.1235 | 194.5530 | 13.69167 | – |
| 2026 Apr 07 17:57 | 2026 Apr 02 05:21:26 | 65.7950 | 0.01364 | 11.9270 | 344.1624 | 194.5530 | 13.69167 | – |
| 2026 Apr 06 17:57 | 2026 Apr 02 05:21:26 | 65.7950 | 0.01364 | 11.9270 | 344.1624 | 194.5530 | 13.69167 | – |